sensor_id;sensor_type;location;lat;lon;timestamp;P1;durP1;ratioP1;P2;durP2;ratioP2
40046;SDS011;31510;48.122;11.576;2022-10-31T00:00:54;16.52;;;6.82;;
40046;SDS011;31510;48.122;11.576;2022-10-31T00:03:20;13.63;;;6.15;;
40046;SDS011;31510;48.122;11.576;2022-10-31T00:05:46;17.35;;;6.72;;
40046;SDS011;31510;48.122;11.576;2022-10-31T00:08:13;17.13;;;6.28;;
40046;SDS011;31510;48.122;11.576;2022-10-31T00:10:39;14.68;;;6.65;;
40046;SDS011;31510;48.122;11.576;2022-10-31T00:13:05;13.43;;;6.40;;
40046;SDS011;31510;48.122;11.576;2022-10-31T00:15:32;16.85;;;7.43;;
40046;SDS011;31510;48.122;11.576;2022-10-31T00:17:58;15.18;;;6.43;;
40046;SDS011;31510;48.122;11.576;2022-10-31T00:20:24;13.70;;;7.05;;
40046;SDS011;31510;48.122;11.576;2022-10-31T00:22:49;12.32;;;6.43;;
40046;SDS011;31510;48.122;11.576;2022-10-31T00:25:14;18.65;;;6.85;;
40046;SDS011;31510;48.122;11.576;2022-10-31T00:27:40;15.65;;;5.75;;
40046;SDS011;31510;48.122;11.576;2022-10-31T00:30:05;15.80;;;6.20;;
40046;SDS011;31510;48.122;11.576;2022-10-31T00:32:31;14.63;;;5.88;;
40046;SDS011;31510;48.122;11.576;2022-10-31T00:34:56;14.75;;;5.78;;
40046;SDS011;31510;48.122;11.576;2022-10-31T00:37:21;10.23;;;4.75;;
40046;SDS011;31510;48.122;11.576;2022-10-31T00:39:47;13.63;;;5.95;;
40046;SDS011;31510;48.122;11.576;2022-10-31T00:42:14;18.83;;;6.65;;
40046;SDS011;31510;48.122;11.576;2022-10-31T00:44:39;13.95;;;5.75;;
40046;SDS011;31510;48.122;11.576;2022-10-31T00:47:05;14.20;;;5.93;;
40046;SDS011;31510;48.122;11.576;2022-10-31T00:49:30;12.32;;;5.53;;
40046;SDS011;31510;48.122;11.576;2022-10-31T00:51:55;15.45;;;7.28;;
40046;SDS011;31510;48.122;11.576;2022-10-31T00:54:20;12.38;;;5.32;;
40046;SDS011;31510;48.122;11.576;2022-10-31T00:56:46;14.45;;;6.55;;
40046;SDS011;31510;48.122;11.576;2022-10-31T00:59:11;14.65;;;5.15;;
40046;SDS011;31510;48.122;11.576;2022-10-31T01:01:36;12.98;;;4.93;;
40046;SDS011;31510;48.122;11.576;2022-10-31T01:04:02;13.00;;;4.97;;
40046;SDS011;31510;48.122;11.576;2022-10-31T01:06:27;10.35;;;4.53;;
40046;SDS011;31510;48.122;11.576;2022-10-31T01:08:52;17.17;;;6.32;;
40046;SDS011;31510;48.122;11.576;2022-10-31T01:11:19;11.50;;;5.10;;
40046;SDS011;31510;48.122;11.576;2022-10-31T01:13:46;8.55;;;4.65;;
40046;SDS011;31510;48.122;11.576;2022-10-31T01:16:16;11.73;;;5.65;;
40046;SDS011;31510;48.122;11.576;2022-10-31T01:18:43;10.65;;;4.90;;
40046;SDS011;31510;48.122;11.576;2022-10-31T01:21:09;9.93;;;4.47;;
40046;SDS011;31510;48.122;11.576;2022-10-31T01:23:39;13.02;;;5.05;;
40046;SDS011;31510;48.122;11.576;2022-10-31T01:26:07;14.40;;;4.82;;
40046;SDS011;31510;48.122;11.576;2022-10-31T01:28:38;11.02;;;5.85;;
40046;SDS011;31510;48.122;11.576;2022-10-31T01:31:08;16.13;;;4.35;;
40046;SDS011;31510;48.122;11.576;2022-10-31T01:33:33;8.45;;;4.00;;
40046;SDS011;31510;48.122;11.576;2022-10-31T01:35:59;10.50;;;4.55;;
40046;SDS011;31510;48.122;11.576;2022-10-31T01:38:26;10.02;;;4.50;;
40046;SDS011;31510;48.122;11.576;2022-10-31T01:40:52;15.02;;;4.45;;
40046;SDS011;31510;48.122;11.576;2022-10-31T01:43:17;9.55;;;5.28;;
40046;SDS011;31510;48.122;11.576;2022-10-31T01:45:44;13.43;;;5.15;;
40046;SDS011;31510;48.122;11.576;2022-10-31T01:48:15;9.18;;;3.60;;
40046;SDS011;31510;48.122;11.576;2022-10-31T01:50:44;7.97;;;3.60;;
40046;SDS011;31510;48.122;11.576;2022-10-31T01:53:13;8.10;;;4.57;;
40046;SDS011;31510;48.122;11.576;2022-10-31T01:55:41;14.20;;;4.63;;
40046;SDS011;31510;48.122;11.576;2022-10-31T01:58:10;17.92;;;5.22;;
40046;SDS011;31510;48.122;11.576;2022-10-31T02:00:38;13.30;;;4.00;;
40046;SDS011;31510;48.122;11.576;2022-10-31T02:03:06;14.65;;;5.40;;
40046;SDS011;31510;48.122;11.576;2022-10-31T02:05:31;12.73;;;4.53;;
40046;SDS011;31510;48.122;11.576;2022-10-31T02:08:04;15.50;;;4.03;;
40046;SDS011;31510;48.122;11.576;2022-10-31T02:10:34;10.93;;;5.57;;
40046;SDS011;31510;48.122;11.576;2022-10-31T02:13:03;9.43;;;4.22;;
40046;SDS011;31510;48.122;11.576;2022-10-31T02:15:31;11.27;;;4.05;;
40046;SDS011;31510;48.122;11.576;2022-10-31T02:17:57;13.13;;;5.13;;
40046;SDS011;31510;48.122;11.576;2022-10-31T02:20:24;10.90;;;4.03;;
40046;SDS011;31510;48.122;11.576;2022-10-31T02:41:38;7.18;;;3.72;;
40046;SDS011;31510;48.122;11.576;2022-10-31T02:44:07;12.48;;;4.25;;
40046;SDS011;31510;48.122;11.576;2022-10-31T02:46:43;9.45;;;3.67;;
40046;SDS011;31510;48.122;11.576;2022-10-31T02:49:11;9.57;;;3.92;;
40046;SDS011;31510;48.122;11.576;2022-10-31T02:51:43;8.57;;;3.92;;
40046;SDS011;31510;48.122;11.576;2022-10-31T02:54:21;13.82;;;3.80;;
40046;SDS011;31510;48.122;11.576;2022-10-31T02:56:52;9.23;;;3.70;;
40046;SDS011;31510;48.122;11.576;2022-10-31T02:59:22;7.13;;;4.22;;
40046;SDS011;31510;48.122;11.576;2022-10-31T03:01:57;12.05;;;4.10;;
40046;SDS011;31510;48.122;11.576;2022-10-31T03:04:40;8.80;;;3.97;;
40046;SDS011;31510;48.122;11.576;2022-10-31T03:13:32;9.95;;;3.85;;
40046;SDS011;31510;48.122;11.576;2022-10-31T03:18:40;14.13;;;4.07;;
40046;SDS011;31510;48.122;11.576;2022-10-31T03:21:14;12.50;;;3.78;;
40046;SDS011;31510;48.122;11.576;2022-10-31T03:23:45;10.45;;;3.95;;
40046;SDS011;31510;48.122;11.576;2022-10-31T03:26:14;7.22;;;4.10;;
40046;SDS011;31510;48.122;11.576;2022-10-31T03:28:45;9.05;;;3.55;;
40046;SDS011;31510;48.122;11.576;2022-10-31T03:31:16;11.90;;;3.45;;
40046;SDS011;31510;48.122;11.576;2022-10-31T03:33:43;9.98;;;4.25;;
40046;SDS011;31510;48.122;11.576;2022-10-31T03:36:10;9.10;;;3.78;;
40046;SDS011;31510;48.122;11.576;2022-10-31T03:38:38;12.65;;;4.28;;
40046;SDS011;31510;48.122;11.576;2022-10-31T03:41:06;11.23;;;3.85;;
40046;SDS011;31510;48.122;11.576;2022-10-31T03:43:37;13.95;;;4.90;;
40046;SDS011;31510;48.122;11.576;2022-10-31T03:48:31;9.93;;;4.00;;
40046;SDS011;31510;48.122;11.576;2022-10-31T03:50:59;9.23;;;4.03;;
40046;SDS011;31510;48.122;11.576;2022-10-31T03:56:28;9.00;;;3.95;;
40046;SDS011;31510;48.122;11.576;2022-10-31T03:59:05;9.52;;;3.78;;
40046;SDS011;31510;48.122;11.576;2022-10-31T04:01:35;12.20;;;5.28;;
40046;SDS011;31510;48.122;11.576;2022-10-31T04:04:04;8.52;;;4.22;;
40046;SDS011;31510;48.122;11.576;2022-10-31T04:06:31;8.23;;;3.85;;
40046;SDS011;31510;48.122;11.576;2022-10-31T04:09:00;12.65;;;4.05;;
40046;SDS011;31510;48.122;11.576;2022-10-31T04:11:36;10.33;;;4.03;;
40046;SDS011;31510;48.122;11.576;2022-10-31T04:14:07;6.68;;;4.05;;
40046;SDS011;31510;48.122;11.576;2022-10-31T04:16:33;10.60;;;4.07;;
40046;SDS011;31510;48.122;11.576;2022-10-31T04:18:59;9.73;;;3.50;;
40046;SDS011;31510;48.122;11.576;2022-10-31T04:21:28;12.00;;;4.68;;
40046;SDS011;31510;48.122;11.576;2022-10-31T04:23:54;13.13;;;4.43;;
40046;SDS011;31510;48.122;11.576;2022-10-31T04:26:20;9.30;;;3.53;;
40046;SDS011;31510;48.122;11.576;2022-10-31T04:28:45;9.48;;;3.58;;
40046;SDS011;31510;48.122;11.576;2022-10-31T04:31:10;11.35;;;3.60;;
40046;SDS011;31510;48.122;11.576;2022-10-31T04:33:36;13.90;;;3.95;;
40046;SDS011;31510;48.122;11.576;2022-10-31T04:36:02;9.93;;;4.20;;
40046;SDS011;31510;48.122;11.576;2022-10-31T04:38:27;9.60;;;2.88;;
40046;SDS011;31510;48.122;11.576;2022-10-31T04:40:53;9.30;;;3.17;;
40046;SDS011;31510;48.122;11.576;2022-10-31T04:43:18;8.10;;;3.92;;
40046;SDS011;31510;48.122;11.576;2022-10-31T04:45:43;8.40;;;3.72;;
40046;SDS011;31510;48.122;11.576;2022-10-31T04:48:09;9.27;;;3.08;;
40046;SDS011;31510;48.122;11.576;2022-10-31T04:50:34;7.75;;;4.65;;
40046;SDS011;31510;48.122;11.576;2022-10-31T04:52:59;9.63;;;3.13;;
40046;SDS011;31510;48.122;11.576;2022-10-31T04:55:24;12.27;;;4.15;;
40046;SDS011;31510;48.122;11.576;2022-10-31T04:57:50;7.13;;;3.13;;
40046;SDS011;31510;48.122;11.576;2022-10-31T05:00:17;10.77;;;3.38;;
40046;SDS011;31510;48.122;11.576;2022-10-31T05:02:47;11.70;;;4.10;;
40046;SDS011;31510;48.122;11.576;2022-10-31T05:05:13;8.90;;;3.67;;
40046;SDS011;31510;48.122;11.576;2022-10-31T05:07:43;5.40;;;2.80;;
40046;SDS011;31510;48.122;11.576;2022-10-31T05:10:10;18.40;;;3.88;;
40046;SDS011;31510;48.122;11.576;2022-10-31T05:12:44;9.57;;;3.65;;
40046;SDS011;31510;48.122;11.576;2022-10-31T05:15:11;7.63;;;3.10;;
40046;SDS011;31510;48.122;11.576;2022-10-31T05:17:37;13.65;;;3.13;;
40046;SDS011;31510;48.122;11.576;2022-10-31T05:20:02;6.95;;;2.70;;
40046;SDS011;31510;48.122;11.576;2022-10-31T05:22:27;13.57;;;4.43;;
40046;SDS011;31510;48.122;11.576;2022-10-31T05:24:53;10.07;;;4.38;;
40046;SDS011;31510;48.122;11.576;2022-10-31T05:27:18;15.25;;;4.72;;
40046;SDS011;31510;48.122;11.576;2022-10-31T05:29:43;10.30;;;3.88;;
40046;SDS011;31510;48.122;11.576;2022-10-31T05:32:09;7.85;;;3.55;;
40046;SDS011;31510;48.122;11.576;2022-10-31T05:34:34;12.02;;;3.25;;
40046;SDS011;31510;48.122;11.576;2022-10-31T05:36:59;6.35;;;3.20;;
40046;SDS011;31510;48.122;11.576;2022-10-31T05:39:24;8.30;;;3.15;;
40046;SDS011;31510;48.122;11.576;2022-10-31T05:41:50;11.65;;;4.18;;
40046;SDS011;31510;48.122;11.576;2022-10-31T05:44:15;6.47;;;3.10;;
40046;SDS011;31510;48.122;11.576;2022-10-31T05:46:40;8.07;;;4.28;;
40046;SDS011;31510;48.122;11.576;2022-10-31T05:49:06;10.68;;;3.97;;
40046;SDS011;31510;48.122;11.576;2022-10-31T05:51:31;11.35;;;5.15;;
40046;SDS011;31510;48.122;11.576;2022-10-31T05:53:56;12.18;;;5.43;;
40046;SDS011;31510;48.122;11.576;2022-10-31T05:56:21;14.90;;;4.57;;
40046;SDS011;31510;48.122;11.576;2022-10-31T05:58:47;13.25;;;4.05;;
40046;SDS011;31510;48.122;11.576;2022-10-31T06:01:12;8.15;;;3.40;;
40046;SDS011;31510;48.122;11.576;2022-10-31T06:03:37;11.10;;;5.25;;
40046;SDS011;31510;48.122;11.576;2022-10-31T06:06:02;6.60;;;3.20;;
40046;SDS011;31510;48.122;11.576;2022-10-31T06:08:28;9.73;;;3.45;;
40046;SDS011;31510;48.122;11.576;2022-10-31T06:10:53;7.05;;;3.55;;
40046;SDS011;31510;48.122;11.576;2022-10-31T06:13:18;8.57;;;3.67;;
40046;SDS011;31510;48.122;11.576;2022-10-31T06:15:44;5.88;;;2.80;;
40046;SDS011;31510;48.122;11.576;2022-10-31T06:18:09;6.63;;;3.72;;
40046;SDS011;31510;48.122;11.576;2022-10-31T06:20:34;11.13;;;4.50;;
40046;SDS011;31510;48.122;11.576;2022-10-31T06:23:00;11.75;;;3.83;;
40046;SDS011;31510;48.122;11.576;2022-10-31T06:25:25;10.57;;;4.10;;
40046;SDS011;31510;48.122;11.576;2022-10-31T06:27:51;18.30;;;5.40;;
40046;SDS011;31510;48.122;11.576;2022-10-31T06:30:16;10.05;;;4.20;;
40046;SDS011;31510;48.122;11.576;2022-10-31T06:32:41;12.80;;;4.50;;
40046;SDS011;31510;48.122;11.576;2022-10-31T06:35:07;12.93;;;4.25;;
40046;SDS011;31510;48.122;11.576;2022-10-31T06:37:32;9.95;;;4.00;;
40046;SDS011;31510;48.122;11.576;2022-10-31T06:39:57;15.05;;;4.40;;
40046;SDS011;31510;48.122;11.576;2022-10-31T06:42:23;14.23;;;6.93;;
40046;SDS011;31510;48.122;11.576;2022-10-31T06:44:48;10.50;;;4.20;;
40046;SDS011;31510;48.122;11.576;2022-10-31T06:47:13;11.85;;;5.32;;
40046;SDS011;31510;48.122;11.576;2022-10-31T06:49:38;12.02;;;3.58;;
40046;SDS011;31510;48.122;11.576;2022-10-31T06:52:04;7.32;;;4.07;;
40046;SDS011;31510;48.122;11.576;2022-10-31T06:54:30;6.82;;;3.38;;
40046;SDS011;31510;48.122;11.576;2022-10-31T06:56:55;12.50;;;3.92;;
40046;SDS011;31510;48.122;11.576;2022-10-31T06:59:20;9.35;;;3.05;;
40046;SDS011;31510;48.122;11.576;2022-10-31T07:01:46;9.57;;;3.75;;
40046;SDS011;31510;48.122;11.576;2022-10-31T07:04:11;5.53;;;2.72;;
40046;SDS011;31510;48.122;11.576;2022-10-31T07:06:36;10.10;;;4.20;;
40046;SDS011;31510;48.122;11.576;2022-10-31T07:09:02;7.15;;;3.33;;
40046;SDS011;31510;48.122;11.576;2022-10-31T07:11:27;9.57;;;4.07;;
40046;SDS011;31510;48.122;11.576;2022-10-31T07:13:53;11.07;;;4.68;;
40046;SDS011;31510;48.122;11.576;2022-10-31T07:16:18;7.47;;;4.05;;
40046;SDS011;31510;48.122;11.576;2022-10-31T07:18:43;14.55;;;4.80;;
40046;SDS011;31510;48.122;11.576;2022-10-31T07:21:08;10.43;;;4.50;;
40046;SDS011;31510;48.122;11.576;2022-10-31T07:23:34;12.13;;;5.50;;
40046;SDS011;31510;48.122;11.576;2022-10-31T07:25:59;11.88;;;5.43;;
40046;SDS011;31510;48.122;11.576;2022-10-31T07:28:25;11.93;;;5.10;;
40046;SDS011;31510;48.122;11.576;2022-10-31T07:30:55;13.93;;;5.15;;
40046;SDS011;31510;48.122;11.576;2022-10-31T07:33:22;9.85;;;4.63;;
40046;SDS011;31510;48.122;11.576;2022-10-31T07:35:47;8.00;;;4.15;;
40046;SDS011;31510;48.122;11.576;2022-10-31T07:38:13;7.55;;;4.03;;
40046;SDS011;31510;48.122;11.576;2022-10-31T07:40:40;9.00;;;4.13;;
40046;SDS011;31510;48.122;11.576;2022-10-31T07:43:07;10.73;;;4.00;;
40046;SDS011;31510;48.122;11.576;2022-10-31T07:45:33;9.23;;;3.95;;
40046;SDS011;31510;48.122;11.576;2022-10-31T07:47:58;10.15;;;3.80;;
40046;SDS011;31510;48.122;11.576;2022-10-31T07:50:28;8.13;;;4.47;;
40046;SDS011;31510;48.122;11.576;2022-10-31T07:52:57;19.95;;;4.25;;
40046;SDS011;31510;48.122;11.576;2022-10-31T07:55:24;13.98;;;4.20;;
40046;SDS011;31510;48.122;11.576;2022-10-31T07:57:59;9.88;;;4.22;;
40046;SDS011;31510;48.122;11.576;2022-10-31T08:00:25;6.88;;;3.10;;
40046;SDS011;31510;48.122;11.576;2022-10-31T08:02:58;8.55;;;3.38;;
40046;SDS011;31510;48.122;11.576;2022-10-31T08:05:23;12.27;;;4.32;;
40046;SDS011;31510;48.122;11.576;2022-10-31T08:07:49;16.30;;;4.18;;
40046;SDS011;31510;48.122;11.576;2022-10-31T08:10:14;12.13;;;3.40;;
40046;SDS011;31510;48.122;11.576;2022-10-31T08:12:39;10.90;;;3.55;;
40046;SDS011;31510;48.122;11.576;2022-10-31T08:15:04;12.48;;;3.70;;
40046;SDS011;31510;48.122;11.576;2022-10-31T08:17:30;10.57;;;3.38;;
40046;SDS011;31510;48.122;11.576;2022-10-31T08:20:00;13.27;;;3.20;;
40046;SDS011;31510;48.122;11.576;2022-10-31T08:22:25;8.97;;;4.17;;
40046;SDS011;31510;48.122;11.576;2022-10-31T08:24:50;10.88;;;3.83;;
40046;SDS011;31510;48.122;11.576;2022-10-31T08:27:16;7.90;;;3.27;;
40046;SDS011;31510;48.122;11.576;2022-10-31T08:29:41;12.30;;;3.70;;
40046;SDS011;31510;48.122;11.576;2022-10-31T08:32:06;13.57;;;4.83;;
40046;SDS011;31510;48.122;11.576;2022-10-31T08:34:31;7.83;;;4.57;;
40046;SDS011;31510;48.122;11.576;2022-10-31T08:36:56;10.43;;;3.35;;
40046;SDS011;31510;48.122;11.576;2022-10-31T08:39:22;10.05;;;3.42;;
40046;SDS011;31510;48.122;11.576;2022-10-31T08:41:47;7.22;;;3.75;;
40046;SDS011;31510;48.122;11.576;2022-10-31T08:44:12;7.63;;;3.63;;
40046;SDS011;31510;48.122;11.576;2022-10-31T08:46:38;13.65;;;5.22;;
40046;SDS011;31510;48.122;11.576;2022-10-31T08:49:03;15.85;;;5.85;;
40046;SDS011;31510;48.122;11.576;2022-10-31T08:51:28;15.20;;;6.32;;
40046;SDS011;31510;48.122;11.576;2022-10-31T08:53:53;11.35;;;5.95;;
40046;SDS011;31510;48.122;11.576;2022-10-31T08:56:19;15.13;;;5.30;;
40046;SDS011;31510;48.122;11.576;2022-10-31T08:58:44;10.95;;;6.15;;
40046;SDS011;31510;48.122;11.576;2022-10-31T09:01:09;18.52;;;6.60;;
40046;SDS011;31510;48.122;11.576;2022-10-31T09:03:35;15.23;;;6.32;;
40046;SDS011;31510;48.122;11.576;2022-10-31T09:06:01;12.05;;;5.70;;
40046;SDS011;31510;48.122;11.576;2022-10-31T09:08:29;12.45;;;6.00;;
40046;SDS011;31510;48.122;11.576;2022-10-31T09:10:55;13.50;;;5.13;;
40046;SDS011;31510;48.122;11.576;2022-10-31T09:13:22;12.18;;;5.32;;
40046;SDS011;31510;48.122;11.576;2022-10-31T09:15:48;15.32;;;6.03;;
40046;SDS011;31510;48.122;11.576;2022-10-31T09:18:15;11.32;;;6.05;;
40046;SDS011;31510;48.122;11.576;2022-10-31T09:20:42;11.30;;;5.60;;
40046;SDS011;31510;48.122;11.576;2022-10-31T09:23:09;16.48;;;6.20;;
40046;SDS011;31510;48.122;11.576;2022-10-31T09:25:37;13.55;;;6.13;;
40046;SDS011;31510;48.122;11.576;2022-10-31T09:28:03;11.68;;;5.13;;
40046;SDS011;31510;48.122;11.576;2022-10-31T09:30:30;8.85;;;4.45;;
40046;SDS011;31510;48.122;11.576;2022-10-31T09:32:57;11.52;;;4.43;;
40046;SDS011;31510;48.122;11.576;2022-10-31T09:35:23;12.77;;;4.93;;
40046;SDS011;31510;48.122;11.576;2022-10-31T09:37:56;8.90;;;4.80;;
40046;SDS011;31510;48.122;11.576;2022-10-31T09:40:23;11.82;;;5.35;;
40046;SDS011;31510;48.122;11.576;2022-10-31T09:46:14;15.40;;;4.05;;
40046;SDS011;31510;48.122;11.576;2022-10-31T09:49:00;11.57;;;4.30;;
40046;SDS011;31510;48.122;11.576;2022-10-31T09:56:49;10.82;;;3.75;;
40046;SDS011;31510;48.122;11.576;2022-10-31T09:59:25;7.20;;;3.17;;
40046;SDS011;31510;48.122;11.576;2022-10-31T10:01:56;7.55;;;3.22;;
40046;SDS011;31510;48.122;11.576;2022-10-31T10:06:54;8.60;;;3.80;;
40046;SDS011;31510;48.122;11.576;2022-10-31T10:09:20;7.30;;;2.78;;
40046;SDS011;31510;48.122;11.576;2022-10-31T10:17:38;7.82;;;3.08;;
40046;SDS011;31510;48.122;11.576;2022-10-31T10:25:34;11.85;;;4.25;;
40046;SDS011;31510;48.122;11.576;2022-10-31T10:30:50;11.18;;;2.63;;
40046;SDS011;31510;48.122;11.576;2022-10-31T10:33:32;12.25;;;3.38;;
40046;SDS011;31510;48.122;11.576;2022-10-31T10:36:08;11.00;;;2.65;;
40046;SDS011;31510;48.122;11.576;2022-10-31T10:41:18;8.00;;;2.75;;
40046;SDS011;31510;48.122;11.576;2022-10-31T10:43:48;6.60;;;2.78;;
40046;SDS011;31510;48.122;11.576;2022-10-31T10:46:34;11.07;;;3.53;;
40046;SDS011;31510;48.122;11.576;2022-10-31T10:49:28;12.18;;;3.05;;
40046;SDS011;31510;48.122;11.576;2022-10-31T10:52:08;10.35;;;3.25;;
40046;SDS011;31510;48.122;11.576;2022-10-31T10:59:54;12.10;;;2.22;;
40046;SDS011;31510;48.122;11.576;2022-10-31T11:02:22;6.72;;;2.05;;
40046;SDS011;31510;48.122;11.576;2022-10-31T11:04:51;10.40;;;2.92;;
40046;SDS011;31510;48.122;11.576;2022-10-31T11:07:18;10.05;;;3.78;;
40046;SDS011;31510;48.122;11.576;2022-10-31T11:09:43;9.98;;;2.15;;
40046;SDS011;31510;48.122;11.576;2022-10-31T11:14:50;13.52;;;2.97;;
40046;SDS011;31510;48.122;11.576;2022-10-31T11:17:26;8.90;;;2.60;;
40046;SDS011;31510;48.122;11.576;2022-10-31T11:22:29;9.70;;;2.25;;
40046;SDS011;31510;48.122;11.576;2022-10-31T11:24:55;10.13;;;2.70;;
40046;SDS011;31510;48.122;11.576;2022-10-31T11:27:21;7.47;;;2.58;;
40046;SDS011;31510;48.122;11.576;2022-10-31T11:29:49;8.75;;;2.40;;
40046;SDS011;31510;48.122;11.576;2022-10-31T11:32:19;4.47;;;2.50;;
40046;SDS011;31510;48.122;11.576;2022-10-31T11:34:59;6.53;;;2.50;;
40046;SDS011;31510;48.122;11.576;2022-10-31T11:37:31;10.85;;;2.25;;
40046;SDS011;31510;48.122;11.576;2022-10-31T11:40:00;5.30;;;2.22;;
40046;SDS011;31510;48.122;11.576;2022-10-31T11:42:34;6.97;;;2.10;;
40046;SDS011;31510;48.122;11.576;2022-10-31T11:45:05;9.27;;;1.85;;
40046;SDS011;31510;48.122;11.576;2022-10-31T11:47:40;6.18;;;2.97;;
40046;SDS011;31510;48.122;11.576;2022-10-31T11:50:09;8.80;;;2.53;;
40046;SDS011;31510;48.122;11.576;2022-10-31T11:52:36;8.82;;;2.70;;
40046;SDS011;31510;48.122;11.576;2022-10-31T12:02:50;9.70;;;2.90;;
40046;SDS011;31510;48.122;11.576;2022-10-31T12:05:23;16.00;;;3.45;;
40046;SDS011;31510;48.122;11.576;2022-10-31T12:07:57;6.88;;;2.03;;
40046;SDS011;31510;48.122;11.576;2022-10-31T12:10:24;10.77;;;3.00;;
40046;SDS011;31510;48.122;11.576;2022-10-31T12:13:15;6.65;;;2.28;;
40046;SDS011;31510;48.122;11.576;2022-10-31T12:15:45;8.85;;;2.53;;
40046;SDS011;31510;48.122;11.576;2022-10-31T12:20:54;8.00;;;3.28;;
40046;SDS011;31510;48.122;11.576;2022-10-31T12:26:06;10.00;;;2.80;;
40046;SDS011;31510;48.122;11.576;2022-10-31T12:28:54;9.68;;;3.00;;
40046;SDS011;31510;48.122;11.576;2022-10-31T12:31:39;12.43;;;2.53;;
40046;SDS011;31510;48.122;11.576;2022-10-31T12:37:48;10.55;;;2.78;;
40046;SDS011;31510;48.122;11.576;2022-10-31T12:46:00;8.43;;;2.33;;
40046;SDS011;31510;48.122;11.576;2022-10-31T12:56:18;8.50;;;2.72;;
40046;SDS011;31510;48.122;11.576;2022-10-31T13:01:44;11.82;;;3.25;;
40046;SDS011;31510;48.122;11.576;2022-10-31T13:04:15;6.85;;;2.85;;
40046;SDS011;31510;48.122;11.576;2022-10-31T13:07:02;13.13;;;3.42;;
40046;SDS011;31510;48.122;11.576;2022-10-31T13:09:37;8.55;;;2.95;;
40046;SDS011;31510;48.122;11.576;2022-10-31T13:12:07;8.82;;;3.05;;
40046;SDS011;31510;48.122;11.576;2022-10-31T13:14:38;11.05;;;3.15;;
40046;SDS011;31510;48.122;11.576;2022-10-31T13:17:06;11.25;;;4.22;;
40046;SDS011;31510;48.122;11.576;2022-10-31T13:19:41;10.73;;;3.63;;
40046;SDS011;31510;48.122;11.576;2022-10-31T13:22:11;11.10;;;3.60;;
40046;SDS011;31510;48.122;11.576;2022-10-31T13:25:03;10.27;;;4.15;;
40046;SDS011;31510;48.122;11.576;2022-10-31T13:27:44;10.00;;;3.17;;
40046;SDS011;31510;48.122;11.576;2022-10-31T13:35:14;12.25;;;3.47;;
40046;SDS011;31510;48.122;11.576;2022-10-31T13:37:46;8.85;;;3.35;;
40046;SDS011;31510;48.122;11.576;2022-10-31T13:45:51;10.70;;;3.53;;
40046;SDS011;31510;48.122;11.576;2022-10-31T13:50:56;14.95;;;4.07;;
40046;SDS011;31510;48.122;11.576;2022-10-31T13:53:22;7.75;;;3.50;;
40046;SDS011;31510;48.122;11.576;2022-10-31T13:56:04;10.73;;;3.83;;
40046;SDS011;31510;48.122;11.576;2022-10-31T13:58:34;8.70;;;3.22;;
40046;SDS011;31510;48.122;11.576;2022-10-31T14:03:59;12.15;;;3.03;;
40046;SDS011;31510;48.122;11.576;2022-10-31T14:09:33;11.65;;;3.45;;
40046;SDS011;31510;48.122;11.576;2022-10-31T14:12:03;17.77;;;5.20;;
40046;SDS011;31510;48.122;11.576;2022-10-31T14:14:49;12.93;;;5.10;;
40046;SDS011;31510;48.122;11.576;2022-10-31T14:17:20;10.60;;;4.10;;
40046;SDS011;31510;48.122;11.576;2022-10-31T14:20:03;11.63;;;3.70;;
40046;SDS011;31510;48.122;11.576;2022-10-31T14:22:47;7.93;;;3.35;;
40046;SDS011;31510;48.122;11.576;2022-10-31T14:25:30;18.83;;;3.78;;
40046;SDS011;31510;48.122;11.576;2022-10-31T14:27:56;13.82;;;4.07;;
40046;SDS011;31510;48.122;11.576;2022-10-31T14:30:23;12.80;;;3.55;;
40046;SDS011;31510;48.122;11.576;2022-10-31T14:32:50;19.70;;;3.92;;
40046;SDS011;31510;48.122;11.576;2022-10-31T14:35:18;9.75;;;4.68;;
40046;SDS011;31510;48.122;11.576;2022-10-31T14:37:56;11.20;;;4.57;;
40046;SDS011;31510;48.122;11.576;2022-10-31T14:51:33;14.25;;;4.25;;
40046;SDS011;31510;48.122;11.576;2022-10-31T14:54:02;12.45;;;3.78;;
40046;SDS011;31510;48.122;11.576;2022-10-31T14:56:32;11.77;;;4.40;;
40046;SDS011;31510;48.122;11.576;2022-10-31T14:59:03;13.48;;;4.55;;
40046;SDS011;31510;48.122;11.576;2022-10-31T15:01:35;12.38;;;4.65;;
40046;SDS011;31510;48.122;11.576;2022-10-31T15:04:25;16.77;;;3.85;;
40046;SDS011;31510;48.122;11.576;2022-10-31T15:06:54;23.13;;;4.82;;
40046;SDS011;31510;48.122;11.576;2022-10-31T15:09:31;8.43;;;3.60;;
40046;SDS011;31510;48.122;11.576;2022-10-31T15:11:59;11.38;;;3.58;;
40046;SDS011;31510;48.122;11.576;2022-10-31T15:14:31;12.88;;;3.60;;
40046;SDS011;31510;48.122;11.576;2022-10-31T15:16:57;8.38;;;3.28;;
40046;SDS011;31510;48.122;11.576;2022-10-31T15:19:27;13.23;;;4.88;;
40046;SDS011;31510;48.122;11.576;2022-10-31T15:21:55;19.58;;;5.50;;
40046;SDS011;31510;48.122;11.576;2022-10-31T15:24:23;16.15;;;5.72;;
40046;SDS011;31510;48.122;11.576;2022-10-31T15:26:51;17.27;;;5.93;;
40046;SDS011;31510;48.122;11.576;2022-10-31T15:29:18;14.52;;;6.70;;
40046;SDS011;31510;48.122;11.576;2022-10-31T15:34:16;16.20;;;5.82;;
40046;SDS011;31510;48.122;11.576;2022-10-31T15:36:49;14.48;;;8.18;;
40046;SDS011;31510;48.122;11.576;2022-10-31T15:39:15;15.60;;;6.43;;
40046;SDS011;31510;48.122;11.576;2022-10-31T15:41:54;16.10;;;6.50;;
40046;SDS011;31510;48.122;11.576;2022-10-31T15:44:25;11.90;;;6.03;;
40046;SDS011;31510;48.122;11.576;2022-10-31T15:47:01;18.55;;;7.60;;
40046;SDS011;31510;48.122;11.576;2022-10-31T15:49:32;21.00;;;7.90;;
40046;SDS011;31510;48.122;11.576;2022-10-31T15:52:11;16.73;;;7.38;;
40046;SDS011;31510;48.122;11.576;2022-10-31T15:54:44;22.50;;;7.93;;
40046;SDS011;31510;48.122;11.576;2022-10-31T15:57:12;14.90;;;7.25;;
40046;SDS011;31510;48.122;11.576;2022-10-31T15:59:38;16.27;;;8.55;;
40046;SDS011;31510;48.122;11.576;2022-10-31T16:02:10;18.48;;;9.25;;
40046;SDS011;31510;48.122;11.576;2022-10-31T16:04:37;17.67;;;8.38;;
40046;SDS011;31510;48.122;11.576;2022-10-31T16:07:11;18.15;;;9.93;;
40046;SDS011;31510;48.122;11.576;2022-10-31T16:09:48;18.40;;;8.77;;
40046;SDS011;31510;48.122;11.576;2022-10-31T16:12:15;14.70;;;8.35;;
40046;SDS011;31510;48.122;11.576;2022-10-31T16:14:41;17.48;;;8.55;;
40046;SDS011;31510;48.122;11.576;2022-10-31T16:17:10;16.50;;;9.15;;
40046;SDS011;31510;48.122;11.576;2022-10-31T16:19:48;15.98;;;9.32;;
40046;SDS011;31510;48.122;11.576;2022-10-31T16:25:13;23.73;;;9.85;;
40046;SDS011;31510;48.122;11.576;2022-10-31T16:27:47;18.05;;;8.57;;
40046;SDS011;31510;48.122;11.576;2022-10-31T16:32:53;16.33;;;9.13;;
40046;SDS011;31510;48.122;11.576;2022-10-31T16:35:27;20.33;;;9.07;;
40046;SDS011;31510;48.122;11.576;2022-10-31T16:37:57;15.18;;;9.27;;
40046;SDS011;31510;48.122;11.576;2022-10-31T16:40:22;12.63;;;7.93;;
40046;SDS011;31510;48.122;11.576;2022-10-31T16:42:48;15.43;;;8.82;;
40046;SDS011;31510;48.122;11.576;2022-10-31T16:45:20;14.45;;;8.25;;
40046;SDS011;31510;48.122;11.576;2022-10-31T16:47:50;18.52;;;8.65;;
40046;SDS011;31510;48.122;11.576;2022-10-31T16:50:21;13.38;;;8.18;;
40046;SDS011;31510;48.122;11.576;2022-10-31T16:52:48;21.70;;;10.35;;
40046;SDS011;31510;48.122;11.576;2022-10-31T16:55:14;21.63;;;10.30;;
40046;SDS011;31510;48.122;11.576;2022-10-31T16:58:00;13.35;;;8.27;;